Time;durP1;ratioP1;P1;durP2;ratioP2;P2;SDS_P1;SDS_P2;PMS_P1;PMS_P2;Temp;Humidity;BMP_temperature;BMP_pressure;BME280_temperature;BME280_humidity;BME280_pressure;Samples;Min_cycle;Max_cycle;Signal;HPM_P1;HPM_P2
2023/09/04 00:01:27;;;;;;;8.20;7.05;;;;;;;;;;5006191;28;25060;-76
2023/09/04 00:03:53;;;;;;;10.15;7.22;;;;;;;;;;5013703;28;25069;-77
2023/09/04 00:06:19;;;;;;;9.13;6.72;;;;;;;;;;5013725;28;25140;-76
2023/09/04 00:08:45;;;;;;;9.75;7.20;;;;;;;;;;5014164;28;25063;-75
2023/09/04 00:11:11;;;;;;;8.90;7.28;;;;;;;;;;5014914;28;25080;-76
2023/09/04 00:13:37;;;;;;;9.30;7.88;;;;;;;;;;5006888;28;25117;-77
2023/09/04 00:16:03;;;;;;;10.00;7.20;;;;;;;;;;5012675;28;25086;-77
2023/09/04 00:18:30;;;;;;;7.65;6.72;;;;;;;;;;5009787;28;25051;-75
2023/09/04 00:20:56;;;;;;;11.07;7.07;;;;;;;;;;5017472;28;25053;-76
2023/09/04 00:23:22;;;;;;;11.25;7.05;;;;;;;;;;5011246;28;25060;-76
2023/09/04 00:25:48;;;;;;;8.70;7.20;;;;;;;;;;5026619;28;25083;-76
2023/09/04 00:28:18;;;;;;;11.80;8.13;;;;;;;;;;5008915;28;25105;-78
2023/09/04 00:30:44;;;;;;;13.18;7.95;;;;;;;;;;5026599;28;25123;-75
2023/09/04 00:33:10;;;;;;;11.25;7.45;;;;;;;;;;5005904;28;25153;-75
2023/09/04 00:35:36;;;;;;;8.10;6.80;;;;;;;;;;5013219;28;25106;-77
2023/09/04 00:38:02;;;;;;;8.57;7.38;;;;;;;;;;5011522;28;25097;-77
2023/09/04 00:40:28;;;;;;;7.82;7.00;;;;;;;;;;5008213;28;25075;-78
2023/09/04 00:42:54;;;;;;;9.75;7.97;;;;;;;;;;5003534;28;25069;-76
2023/09/04 00:45:20;;;;;;;8.77;7.88;;;;;;;;;;5011652;28;25064;-77
2023/09/04 00:47:46;;;;;;;10.82;8.00;;;;;;;;;;5011187;28;25061;-77
2023/09/04 00:50:15;;;;;;;10.02;8.23;;;;;;;;;;5017581;28;25216;-75
2023/09/04 00:52:42;;;;;;;9.65;7.72;;;;;;;;;;5017785;28;25135;-77
2023/09/04 00:55:08;;;;;;;11.52;7.53;;;;;;;;;;5025834;28;26199;-77
2023/09/04 00:57:35;;;;;;;10.70;8.00;;;;;;;;;;5008723;28;25075;-76
2023/09/04 01:00:05;;;;;;;9.43;7.95;;;;;;;;;;5024823;28;25104;-78
2023/09/04 01:02:31;;;;;;;9.32;7.30;;;;;;;;;;5010193;28;25071;-76
2023/09/04 01:04:57;;;;;;;12.07;7.93;;;;;;;;;;5006455;28;25083;-77
2023/09/04 01:07:23;;;;;;;9.95;7.45;;;;;;;;;;5015469;28;25078;-77
2023/09/04 01:09:49;;;;;;;11.63;8.20;;;;;;;;;;5017273;28;25062;-74
2023/09/04 01:12:17;;;;;;;10.25;8.82;;;;;;;;;;5012027;28;25050;-75
2023/09/04 01:14:45;;;;;;;12.38;8.70;;;;;;;;;;5034263;28;25078;-76
2023/09/04 01:17:13;;;;;;;10.40;8.48;;;;;;;;;;5024277;28;25062;-79
2023/09/04 01:19:39;;;;;;;10.40;7.60;;;;;;;;;;5032441;28;25058;-78
2023/09/04 01:22:06;;;;;;;12.25;9.32;;;;;;;;;;5018140;28;25056;-77
2023/09/04 01:24:32;;;;;;;11.20;8.13;;;;;;;;;;5030959;28;25070;-76
2023/09/04 01:27:22;;;;;;;16.23;8.70;;;;;;;;;;5014167;28;25070;-77
2023/09/04 01:29:53;;;;;;;10.13;8.48;;;;;;;;;;5014023;28;25049;-78
2023/09/04 01:32:32;;;;;;;11.70;8.75;;;;;;;;;;5008367;28;25096;-77
2023/09/04 01:35:01;;;;;;;11.07;9.00;;;;;;;;;;5036529;28;25077;-78
2023/09/04 01:37:27;;;;;;;12.60;8.85;;;;;;;;;;5019027;28;25075;-74
2023/09/04 01:39:54;;;;;;;13.30;9.02;;;;;;;;;;5016904;28;25082;-76
2023/09/04 01:42:20;;;;;;;11.88;9.05;;;;;;;;;;5027706;28;25074;-76
2023/09/04 01:44:46;;;;;;;12.65;7.88;;;;;;;;;;5018537;28;25078;-75
2023/09/04 01:47:12;;;;;;;13.85;8.52;;;;;;;;;;5011394;28;25062;-76
2023/09/04 01:49:38;;;;;;;9.88;7.82;;;;;;;;;;5025258;28;25049;-76
2023/09/04 01:52:04;;;;;;;9.38;8.32;;;;;;;;;;5024337;28;25063;-77
2023/09/04 01:54:30;;;;;;;12.10;8.50;;;;;;;;;;5045077;28;25053;-76
2023/09/04 01:56:56;;;;;;;10.70;8.80;;;;;;;;;;5031822;28;25091;-76
2023/09/04 01:59:22;;;;;;;10.05;8.77;;;;;;;;;;5023509;28;25137;-77
2023/09/04 02:01:48;;;;;;;12.07;9.52;;;;;;;;;;5039329;28;25064;-78
2023/09/04 02:04:14;;;;;;;13.18;10.35;;;;;;;;;;5018487;28;25082;-77
2023/09/04 02:06:40;;;;;;;13.27;10.77;;;;;;;;;;5021360;28;25071;-78
2023/09/04 02:09:06;;;;;;;12.82;10.45;;;;;;;;;;5014269;28;25064;-77
2023/09/04 02:11:32;;;;;;;17.35;12.77;;;;;;;;;;5039259;28;25063;-76
2023/09/04 02:13:58;;;;;;;16.35;12.82;;;;;;;;;;5007218;28;25066;-76
2023/09/04 02:16:24;;;;;;;15.38;12.52;;;;;;;;;;5022299;28;25075;-77
2023/09/04 02:18:50;;;;;;;17.73;13.93;;;;;;;;;;5020904;28;25052;-77
2023/09/04 02:21:17;;;;;;;17.88;12.93;;;;;;;;;;5015946;28;25058;-78
2023/09/04 02:23:43;;;;;;;17.88;12.90;;;;;;;;;;5013400;28;25071;-78
2023/09/04 02:26:09;;;;;;;20.88;14.48;;;;;;;;;;5015227;28;25062;-77
2023/09/04 02:28:35;;;;;;;17.90;13.48;;;;;;;;;;5012714;28;25066;-78
2023/09/04 02:31:07;;;;;;;17.63;13.65;;;;;;;;;;5016699;28;25090;-74
2023/09/04 02:33:34;;;;;;;17.92;14.20;;;;;;;;;;5022982;28;25077;-76
2023/09/04 02:36:00;;;;;;;19.98;14.43;;;;;;;;;;5015958;28;25113;-77
2023/09/04 02:38:26;;;;;;;17.08;13.45;;;;;;;;;;5015793;28;25083;-77
2023/09/04 02:40:52;;;;;;;17.65;13.50;;;;;;;;;;5019176;28;25061;-74
2023/09/04 02:43:18;;;;;;;16.45;13.15;;;;;;;;;;5014049;28;25080;-77
2023/09/04 02:45:48;;;;;;;18.38;13.15;;;;;;;;;;5012041;28;25090;-76
2023/09/04 02:48:15;;;;;;;16.92;12.73;;;;;;;;;;5013899;28;25075;-76
2023/09/04 02:50:41;;;;;;;18.80;13.60;;;;;;;;;;5013904;28;25085;-76
2023/09/04 02:53:07;;;;;;;17.50;13.77;;;;;;;;;;5013827;28;25139;-73
2023/09/04 02:55:33;;;;;;;16.00;12.43;;;;;;;;;;5018224;28;25065;-76
2023/09/04 02:57:59;;;;;;;16.55;13.02;;;;;;;;;;5016106;28;25053;-77
2023/09/04 03:00:24;;;;;;;17.48;12.52;;;;;;;;;;5027441;28;25073;-77
2023/09/04 03:02:51;;;;;;;18.45;13.27;;;;;;;;;;5025844;28;25086;-75
2023/09/04 03:05:17;;;;;;;17.05;12.50;;;;;;;;;;5032215;28;25061;-77
2023/09/04 03:07:44;;;;;;;17.60;13.52;;;;;;;;;;5018546;28;25066;-76
2023/09/04 03:10:10;;;;;;;16.58;12.88;;;;;;;;;;5036039;28;25087;-78
2023/09/04 03:12:35;;;;;;;19.13;12.95;;;;;;;;;;5042231;28;25077;-77
2023/09/04 03:15:06;;;;;;;16.92;12.52;;;;;;;;;;5033340;28;25078;-78
2023/09/04 03:17:33;;;;;;;19.42;14.07;;;;;;;;;;5032614;28;25052;-79
2023/09/04 03:19:59;;;;;;;20.02;14.85;;;;;;;;;;5030674;28;25069;-78
2023/09/04 03:22:26;;;;;;;19.95;13.75;;;;;;;;;;5025327;28;25092;-77
2023/09/04 03:24:53;;;;;;;18.20;13.20;;;;;;;;;;5023147;28;25070;-77
2023/09/04 03:27:19;;;;;;;20.00;14.77;;;;;;;;;;5016572;28;25103;-74
2023/09/04 03:29:45;;;;;;;21.42;14.60;;;;;;;;;;5021400;28;25083;-79
2023/09/04 03:32:11;;;;;;;19.73;13.63;;;;;;;;;;5029906;28;25052;-78
2023/09/04 03:34:37;;;;;;;17.63;13.70;;;;;;;;;;5045368;28;25061;-77
2023/09/04 03:37:03;;;;;;;17.35;13.73;;;;;;;;;;5021526;28;25131;-80
2023/09/04 03:39:29;;;;;;;16.42;13.30;;;;;;;;;;5025702;28;25117;-76
2023/09/04 03:41:55;;;;;;;18.55;13.95;;;;;;;;;;5034996;28;25102;-77
2023/09/04 03:44:21;;;;;;;17.85;13.48;;;;;;;;;;5022803;28;25091;-78
2023/09/04 03:46:47;;;;;;;14.25;12.57;;;;;;;;;;5031285;28;25086;-79
2023/09/04 03:49:13;;;;;;;16.48;14.00;;;;;;;;;;5031188;28;25083;-77
2023/09/04 03:51:39;;;;;;;17.98;13.65;;;;;;;;;;5014107;28;25051;-76
2023/09/04 03:54:05;;;;;;;19.83;14.95;;;;;;;;;;5046678;28;25092;-77
2023/09/04 03:56:32;;;;;;;19.80;14.60;;;;;;;;;;5027123;28;25147;-76
2023/09/04 03:58:58;;;;;;;20.10;14.70;;;;;;;;;;5029737;28;25063;-77
2023/09/04 04:01:24;;;;;;;18.73;14.23;;;;;;;;;;5022143;28;25097;-77
2023/09/04 04:03:51;;;;;;;23.02;15.15;;;;;;;;;;5017615;28;25071;-78
2023/09/04 04:06:17;;;;;;;17.95;13.80;;;;;;;;;;5030717;28;25059;-76
2023/09/04 04:08:44;;;;;;;22.52;14.32;;;;;;;;;;5023056;28;25103;-75
2023/09/04 04:11:10;;;;;;;20.73;14.88;;;;;;;;;;5017207;28;25049;-74
2023/09/04 04:13:36;;;;;;;19.63;14.90;;;;;;;;;;5019579;28;25095;-76
2023/09/04 04:16:02;;;;;;;21.60;15.15;;;;;;;;;;5017654;28;25083;-78
2023/09/04 04:18:29;;;;;;;20.48;14.98;;;;;;;;;;5015194;28;25032;-76
2023/09/04 04:20:55;;;;;;;20.58;15.05;;;;;;;;;;5027185;28;25133;-77
2023/09/04 04:23:21;;;;;;;21.85;15.15;;;;;;;;;;5016515;28;25060;-77
2023/09/04 04:25:50;;;;;;;21.70;15.50;;;;;;;;;;5006987;28;25060;-77
2023/09/04 04:28:20;;;;;;;23.20;15.52;;;;;;;;;;5009537;28;25070;-78
2023/09/04 04:30:46;;;;;;;22.88;16.65;;;;;;;;;;5031417;28;25143;-78
2023/09/04 04:33:12;;;;;;;24.60;15.80;;;;;;;;;;5013182;28;25081;-78
2023/09/04 04:35:41;;;;;;;21.70;16.88;;;;;;;;;;5013041;28;25076;-77
2023/09/04 04:38:07;;;;;;;23.08;16.10;;;;;;;;;;5012441;28;25105;-77
2023/09/04 04:40:33;;;;;;;20.05;16.48;;;;;;;;;;5010193;28;25114;-75
2023/09/04 04:43:00;;;;;;;23.90;16.17;;;;;;;;;;5011028;28;25072;-79
2023/09/04 04:45:26;;;;;;;19.75;15.90;;;;;;;;;;5032991;28;25077;-76
2023/09/04 04:47:52;;;;;;;24.70;16.23;;;;;;;;;;5018016;28;25064;-78
2023/09/04 04:50:18;;;;;;;22.60;15.73;;;;;;;;;;5042539;28;25128;-77
2023/09/04 04:52:44;;;;;;;24.13;16.92;;;;;;;;;;5015889;28;25094;-79
2023/09/04 04:55:10;;;;;;;22.05;15.95;;;;;;;;;;5019508;28;25066;-79
2023/09/04 04:57:36;;;;;;;24.80;17.35;;;;;;;;;;5023726;28;25063;-78
2023/09/04 05:00:06;;;;;;;24.48;17.85;;;;;;;;;;5027443;28;25071;-78
2023/09/04 05:02:33;;;;;;;24.20;16.92;;;;;;;;;;5036810;28;25053;-76
2023/09/04 05:04:59;;;;;;;23.50;17.40;;;;;;;;;;5031550;28;25046;-80
2023/09/04 05:07:25;;;;;;;23.48;17.20;;;;;;;;;;5047537;28;25159;-77
2023/09/04 05:09:55;;;;;;;23.58;17.88;;;;;;;;;;5014480;28;25102;-78
2023/09/04 05:12:22;;;;;;;28.00;18.33;;;;;;;;;;5037109;28;25071;-77
2023/09/04 05:14:48;;;;;;;22.15;17.25;;;;;;;;;;5014890;28;25081;-77
2023/09/04 05:17:14;;;;;;;28.80;19.73;;;;;;;;;;5019160;28;25144;-78
2023/09/04 05:19:40;;;;;;;23.77;16.73;;;;;;;;;;5011745;28;25068;-80
2023/09/04 05:22:07;;;;;;;31.10;18.45;;;;;;;;;;5015324;28;25071;-78
2023/09/04 05:24:33;;;;;;;25.65;17.35;;;;;;;;;;5028243;28;25099;-75
2023/09/04 05:26:59;;;;;;;25.38;18.42;;;;;;;;;;5013466;28;25073;-78
2023/09/04 05:29:25;;;;;;;23.55;17.02;;;;;;;;;;5015366;28;25143;-78
2023/09/04 05:31:51;;;;;;;27.15;17.20;;;;;;;;;;5034409;28;25079;-75
2023/09/04 05:34:18;;;;;;;22.55;17.23;;;;;;;;;;5011715;28;25084;-78
2023/09/04 05:36:44;;;;;;;23.65;17.63;;;;;;;;;;5013304;28;25084;-75
2023/09/04 05:39:10;;;;;;;27.77;18.05;;;;;;;;;;5019086;28;25067;-78
2023/09/04 05:41:39;;;;;;;26.08;18.30;;;;;;;;;;5033060;28;25051;-76
2023/09/04 05:44:06;;;;;;;24.40;18.08;;;;;;;;;;5015178;28;25084;-78
2023/09/04 05:46:32;;;;;;;28.13;18.95;;;;;;;;;;5015214;28;25096;-80
2023/09/04 05:48:58;;;;;;;25.73;18.35;;;;;;;;;;5017819;28;25062;-77
2023/09/04 05:51:25;;;;;;;22.52;18.35;;;;;;;;;;5023808;28;25154;-76
2023/09/04 05:53:51;;;;;;;23.48;18.25;;;;;;;;;;5012871;28;25089;-79
2023/09/04 05:56:17;;;;;;;26.40;18.50;;;;;;;;;;5020113;28;25077;-78
2023/09/04 05:58:44;;;;;;;26.85;18.73;;;;;;;;;;5021237;28;25047;-76
2023/09/04 06:01:11;;;;;;;25.20;17.77;;;;;;;;;;5017653;28;25075;-74
2023/09/04 06:03:37;;;;;;;24.23;17.48;;;;;;;;;;5022298;28;25118;-78
2023/09/04 06:06:03;;;;;;;23.73;18.48;;;;;;;;;;5013974;28;25092;-78
2023/09/04 06:08:30;;;;;;;26.65;18.65;;;;;;;;;;5018130;28;25075;-74
2023/09/04 06:10:56;;;;;;;24.60;17.88;;;;;;;;;;5019728;28;25064;-76
2023/09/04 06:13:22;;;;;;;26.30;18.13;;;;;;;;;;5014217;28;25061;-75
2023/09/04 06:15:51;;;;;;;24.27;17.00;;;;;;;;;;5029759;28;25074;-77
2023/09/04 06:18:19;;;;;;;23.45;18.92;;;;;;;;;;5015562;28;25052;-76
2023/09/04 06:20:45;;;;;;;23.65;19.05;;;;;;;;;;5013776;28;25059;-76
2023/09/04 06:23:11;;;;;;;25.25;18.83;;;;;;;;;;5013906;28;25059;-76
2023/09/04 06:25:39;;;;;;;22.15;18.13;;;;;;;;;;5016326;28;25059;-75
2023/09/04 06:28:08;;;;;;;24.95;18.70;;;;;;;;;;5012350;28;25069;-80
2023/09/04 06:30:34;;;;;;;21.35;17.67;;;;;;;;;;5014445;28;25096;-76
2023/09/04 06:33:01;;;;;;;22.30;18.48;;;;;;;;;;5009626;28;25089;-77
2023/09/04 06:35:28;;;;;;;23.95;17.15;;;;;;;;;;5009016;28;25076;-75
2023/09/04 06:37:54;;;;;;;22.55;16.75;;;;;;;;;;5021069;28;25144;-78
2023/09/04 06:40:21;;;;;;;24.60;17.40;;;;;;;;;;5013151;28;25134;-75
2023/09/04 06:42:47;;;;;;;21.02;16.60;;;;;;;;;;5032796;28;25091;-74
2023/09/04 06:45:13;;;;;;;23.02;17.23;;;;;;;;;;5025643;28;25101;-76
2023/09/04 06:47:39;;;;;;;21.92;16.33;;;;;;;;;;5035134;28;25092;-76
2023/09/04 06:50:08;;;;;;;20.45;16.02;;;;;;;;;;5017227;28;25175;-77
2023/09/04 06:52:35;;;;;;;21.08;16.55;;;;;;;;;;5012586;28;25063;-76
2023/09/04 06:55:01;;;;;;;23.70;16.25;;;;;;;;;;5007909;28;25154;-76
2023/09/04 06:57:27;;;;;;;21.90;15.85;;;;;;;;;;5012827;28;25078;-76
2023/09/04 06:59:56;;;;;;;18.92;15.60;;;;;;;;;;5033018;28;25086;-75
2023/09/04 07:02:22;;;;;;;19.52;16.25;;;;;;;;;;5021772;28;25079;-76
2023/09/04 07:04:48;;;;;;;20.73;16.25;;;;;;;;;;5015951;28;25077;-77
2023/09/04 07:07:14;;;;;;;23.42;16.40;;;;;;;;;;5014477;28;25086;-76
2023/09/04 07:09:40;;;;;;;19.50;15.38;;;;;;;;;;5016746;28;25067;-77
2023/09/04 07:12:06;;;;;;;23.15;16.17;;;;;;;;;;5013534;28;25067;-78
2023/09/04 07:14:32;;;;;;;16.88;13.60;;;;;;;;;;5015330;28;25056;-75
2023/09/04 07:16:58;;;;;;;19.63;15.45;;;;;;;;;;5003991;28;25064;-76
2023/09/04 07:19:24;;;;;;;20.00;15.65;;;;;;;;;;5002935;28;25156;-76
2023/09/04 07:21:50;;;;;;;19.92;15.18;;;;;;;;;;5006698;28;25060;-76
2023/09/04 07:24:16;;;;;;;19.45;15.95;;;;;;;;;;5003835;28;25077;-77
2023/09/04 07:26:42;;;;;;;21.38;15.65;;;;;;;;;;5005368;28;25069;-75
2023/09/04 07:29:08;;;;;;;19.15;15.35;;;;;;;;;;5012406;28;25075;-77
2023/09/04 07:31:34;;;;;;;20.50;14.55;;;;;;;;;;5001170;28;25054;-76
2023/09/04 07:34:01;;;;;;;16.80;14.77;;;;;;;;;;5003423;28;25135;-77
2023/09/04 07:36:27;;;;;;;20.90;16.17;;;;;;;;;;5008471;28;25069;-75
2023/09/04 07:38:54;;;;;;;18.80;14.70;;;;;;;;;;4999052;28;25096;-76
2023/09/04 07:41:19;;;;;;;18.45;15.68;;;;;;;;;;4998835;28;25090;-78
2023/09/04 07:43:46;;;;;;;17.73;14.45;;;;;;;;;;5022168;28;25148;-79
2023/09/04 07:46:11;;;;;;;21.17;15.10;;;;;;;;;;5003207;28;25069;-74
2023/09/04 07:48:38;;;;;;;21.58;16.85;;;;;;;;;;5001653;28;25056;-76
2023/09/04 07:51:05;;;;;;;19.23;15.30;;;;;;;;;;5004280;28;25075;-80
2023/09/04 07:53:31;;;;;;;17.67;14.48;;;;;;;;;;5002427;28;25103;-80
2023/09/04 07:55:57;;;;;;;18.45;14.70;;;;;;;;;;4997860;28;25096;-77
2023/09/04 07:58:23;;;;;;;18.75;15.20;;;;;;;;;;5012869;28;25141;-78
2023/09/04 08:00:50;;;;;;;17.17;14.77;;;;;;;;;;5019733;28;25071;-77
2023/09/04 08:03:16;;;;;;;16.65;14.85;;;;;;;;;;5010400;28;25149;-75
2023/09/04 08:05:42;;;;;;;17.30;14.05;;;;;;;;;;5025744;28;25140;-77
2023/09/04 08:08:12;;;;;;;19.17;14.77;;;;;;;;;;5015507;28;25056;-77
2023/09/04 08:10:39;;;;;;;19.10;16.08;;;;;;;;;;5000451;28;25080;-79
2023/09/04 08:13:06;;;;;;;20.23;15.48;;;;;;;;;;5001831;28;25100;-78
2023/09/04 08:15:32;;;;;;;20.70;15.45;;;;;;;;;;5010239;28;25051;-77
2023/09/04 08:17:58;;;;;;;19.00;14.63;;;;;;;;;;5000822;28;25081;-77
2023/09/04 08:20:24;;;;;;;19.42;14.82;;;;;;;;;;5005996;28;25062;-79
2023/09/04 08:22:50;;;;;;;18.60;15.00;;;;;;;;;;5016641;28;25087;-75
2023/09/04 08:25:16;;;;;;;17.15;13.40;;;;;;;;;;5001721;28;25062;-75
2023/09/04 08:27:42;;;;;;;18.75;13.68;;;;;;;;;;5002404;28;25066;-76
2023/09/04 08:30:08;;;;;;;17.95;13.18;;;;;;;;;;4994633;28;25142;-75
2023/09/04 08:32:34;;;;;;;18.02;12.77;;;;;;;;;;5007915;28;25133;-77
2023/09/04 08:35:00;;;;;;;16.00;13.85;;;;;;;;;;4997219;28;25080;-76
2023/09/04 08:37:26;;;;;;;16.65;13.27;;;;;;;;;;5000045;28;25053;-74
2023/09/04 08:39:52;;;;;;;16.63;13.20;;;;;;;;;;4994972;28;25073;-74
2023/09/04 08:42:18;;;;;;;16.23;13.13;;;;;;;;;;5004874;28;25096;-74
2023/09/04 08:44:44;;;;;;;14.93;12.15;;;;;;;;;;4998991;28;25143;-76
2023/09/04 08:47:10;;;;;;;15.70;12.73;;;;;;;;;;4996119;28;25066;-75
2023/09/04 08:49:37;;;;;;;15.18;12.20;;;;;;;;;;5007661;28;25051;-76
2023/09/04 08:52:05;;;;;;;14.85;12.35;;;;;;;;;;4999107;28;25072;-74
2023/09/04 08:54:32;;;;;;;15.93;12.63;;;;;;;;;;5002115;28;25058;-75
2023/09/04 08:56:58;;;;;;;17.63;12.02;;;;;;;;;;5003380;28;25059;-78
2023/09/04 08:59:24;;;;;;;16.33;12.43;;;;;;;;;;5000686;28;25081;-77
2023/09/04 09:01:51;;;;;;;12.93;11.32;;;;;;;;;;5006055;28;25062;-75
2023/09/04 09:04:20;;;;;;;16.45;13.07;;;;;;;;;;5001356;28;25105;-76
2023/09/04 09:06:47;;;;;;;15.57;13.05;;;;;;;;;;5007536;28;25135;-75
2023/09/04 09:09:15;;;;;;;17.17;13.48;;;;;;;;;;4997181;28;25082;-76
2023/09/04 09:11:41;;;;;;;18.48;13.43;;;;;;;;;;5005471;28;25089;-76
2023/09/04 09:14:07;;;;;;;16.90;12.43;;;;;;;;;;5006466;28;25062;-73
2023/09/04 09:16:33;;;;;;;19.52;13.27;;;;;;;;;;5002858;28;25121;-75
2023/09/04 09:18:59;;;;;;;17.58;13.07;;;;;;;;;;5002466;28;25140;-74
2023/09/04 09:21:26;;;;;;;16.88;11.43;;;;;;;;;;5009164;28;25051;-76
2023/09/04 09:24:08;;;;;;;16.63;12.45;;;;;;;;;;5031852;28;25114;-79
2023/09/04 09:26:34;;;;;;;15.65;13.20;;;;;;;;;;5006867;28;25063;-75
2023/09/04 09:29:02;;;;;;;16.33;12.73;;;;;;;;;;5017904;28;25080;-76
2023/09/04 09:31:29;;;;;;;19.85;13.80;;;;;;;;;;5010072;28;25068;-75
2023/09/04 09:33:55;;;;;;;17.70;13.52;;;;;;;;;;5003370;28;25135;-75
2023/09/04 09:36:21;;;;;;;16.88;12.57;;;;;;;;;;5001673;28;25131;-78
2023/09/04 09:38:47;;;;;;;19.90;15.35;;;;;;;;;;5005569;28;25162;-76
2023/09/04 09:41:13;;;;;;;18.08;13.48;;;;;;;;;;4998122;28;25106;-72
2023/09/04 09:43:41;;;;;;;19.98;13.52;;;;;;;;;;5013530;28;25055;-75
2023/09/04 09:46:10;;;;;;;17.23;14.07;;;;;;;;;;5026646;28;25067;-75
2023/09/04 09:48:37;;;;;;;14.50;11.93;;;;;;;;;;5009698;28;25088;-73
2023/09/04 09:51:06;;;;;;;18.10;13.23;;;;;;;;;;5002518;28;25061;-75
2023/09/04 09:53:51;;;;;;;15.45;11.45;;;;;;;;;;5009901;28;25152;-74
2023/09/04 09:56:18;;;;;;;16.17;12.40;;;;;;;;;;4996898;28;25058;-74
2023/09/04 09:58:45;;;;;;;19.38;13.18;;;;;;;;;;5025634;28;25076;-75
2023/09/04 10:01:12;;;;;;;13.85;11.93;;;;;;;;;;4997877;28;25098;-75
2023/09/04 10:03:38;;;;;;;18.75;12.27;;;;;;;;;;5013372;28;25060;-74
2023/09/04 10:06:04;;;;;;;14.60;12.00;;;;;;;;;;4995528;28;25119;-78
2023/09/04 10:08:33;;;;;;;15.90;12.98;;;;;;;;;;5003800;28;25145;-75
2023/09/04 10:11:00;;;;;;;14.60;11.70;;;;;;;;;;5009507;28;25047;-74
2023/09/04 10:13:28;;;;;;;16.42;12.73;;;;;;;;;;4999698;28;25066;-74
2023/09/04 10:15:57;;;;;;;15.13;11.43;;;;;;;;;;5002140;28;25063;-75
2023/09/04 10:18:26;;;;;;;17.27;12.13;;;;;;;;;;4995844;28;25108;-76
2023/09/04 10:20:53;;;;;;;13.80;11.48;;;;;;;;;;5015015;28;25081;-74
2023/09/04 10:23:24;;;;;;;16.27;10.63;;;;;;;;;;5020341;28;25072;-73
2023/09/04 10:26:00;;;;;;;17.75;11.30;;;;;;;;;;5024255;28;25123;-74
2023/09/04 10:28:33;;;;;;;16.60;11.02;;;;;;;;;;5002710;28;25055;-74
2023/09/04 10:31:00;;;;;;;12.85;10.10;;;;;;;;;;5000727;28;25106;-73
2023/09/04 10:33:27;;;;;;;15.82;10.85;;;;;;;;;;5003891;28;25055;-75
2023/09/04 10:35:56;;;;;;;14.40;10.50;;;;;;;;;;5006676;28;25151;-76
2023/09/04 10:38:22;;;;;;;11.88;9.73;;;;;;;;;;5010157;28;25155;-73
2023/09/04 10:40:49;;;;;;;13.00;10.27;;;;;;;;;;5002343;28;25111;-75
2023/09/04 10:43:14;;;;;;;14.80;10.27;;;;;;;;;;5010340;28;25071;-77
2023/09/04 10:45:40;;;;;;;12.63;8.70;;;;;;;;;;5023196;28;25072;-75
2023/09/04 10:48:06;;;;;;;12.63;9.90;;;;;;;;;;5017573;28;25070;-76
2023/09/04 10:50:32;;;;;;;15.27;10.00;;;;;;;;;;5020044;28;25074;-72
2023/09/04 10:53:00;;;;;;;14.90;9.40;;;;;;;;;;5006117;28;25081;-74
2023/09/04 10:55:27;;;;;;;10.88;8.45;;;;;;;;;;5019227;28;25064;-73
2023/09/04 10:57:59;;;;;;;9.75;7.95;;;;;;;;;;5005105;28;25073;-74
2023/09/04 11:00:26;;;;;;;;;;;;;;;;;;5010221;28;25070;-74
2023/09/04 11:02:51;;;;;;;11.68;8.60;;;;;;;;;;5004776;28;24081;-74
2023/09/04 11:05:17;;;;;;;8.88;7.35;;;;;;;;;;4997323;28;25063;-75
2023/09/04 11:07:43;;;;;;;10.05;7.53;;;;;;;;;;4998812;28;25067;-76
2023/09/04 11:10:19;;;;;;;9.15;7.90;;;;;;;;;;5001757;28;25075;-74
2023/09/04 11:12:45;;;;;;;8.85;7.75;;;;;;;;;;4997639;28;25092;-73
2023/09/04 11:15:12;;;;;;;11.18;9.00;;;;;;;;;;4999983;28;25074;-74
2023/09/04 11:17:40;;;;;;;10.90;8.63;;;;;;;;;;5005749;28;25073;-75
2023/09/04 11:20:06;;;;;;;11.38;9.70;;;;;;;;;;5004154;28;25146;-74
2023/09/04 11:22:33;;;;;;;16.40;9.50;;;;;;;;;;5001900;28;25071;-74
2023/09/04 11:24:59;;;;;;;13.13;9.60;;;;;;;;;;5011415;28;25078;-75
2023/09/04 11:27:26;;;;;;;10.35;8.27;;;;;;;;;;5002374;28;25098;-76
2023/09/04 11:29:52;;;;;;;12.75;7.80;;;;;;;;;;5006163;28;25076;-77
2023/09/04 11:32:19;;;;;;;11.52;8.70;;;;;;;;;;5012779;28;25101;-74
2023/09/04 11:34:46;;;;;;;12.02;8.52;;;;;;;;;;5001066;28;25153;-75
2023/09/04 11:37:12;;;;;;;10.82;9.07;;;;;;;;;;5013737;28;25057;-75
2023/09/04 11:39:55;;;;;;;11.43;7.68;;;;;;;;;;5002839;28;25100;-75
2023/09/04 11:42:22;;;;;;;9.45;8.32;;;;;;;;;;4995490;28;25075;-76
2023/09/04 11:44:49;;;;;;;14.40;9.00;;;;;;;;;;5003875;28;25070;-76
2023/09/04 11:47:15;;;;;;;9.57;7.45;;;;;;;;;;4996642;28;25130;-75
2023/09/04 11:49:41;;;;;;;12.70;7.53;;;;;;;;;;5000218;28;25067;-75
2023/09/04 11:52:07;;;;;;;13.02;7.55;;;;;;;;;;4999467;28;25055;-77
2023/09/04 11:54:36;;;;;;;8.57;6.13;;;;;;;;;;5008198;28;25087;-76
2023/09/04 11:57:03;;;;;;;9.50;6.53;;;;;;;;;;4994066;28;25073;-79
2023/09/04 11:59:33;;;;;;;9.35;7.57;;;;;;;;;;5005519;28;25152;-74
2023/09/04 12:01:59;;;;;;;8.18;6.88;;;;;;;;;;5004696;28;25135;-75
2023/09/04 12:04:26;;;;;;;7.40;6.50;;;;;;;;;;5002239;28;25051;-74
2023/09/04 12:06:52;;;;;;;9.13;7.75;;;;;;;;;;5001970;28;25062;-75
2023/09/04 12:09:17;;;;;;;9.80;7.55;;;;;;;;;;5000495;28;25062;-73
2023/09/04 12:11:43;;;;;;;12.25;7.63;;;;;;;;;;5009140;28;25134;-74
2023/09/04 12:14:11;;;;;;;9.30;6.50;;;;;;;;;;5006273;28;25105;-73
2023/09/04 12:16:37;;;;;;;7.60;5.63;;;;;;;;;;4995380;28;25110;-74
2023/09/04 12:19:05;;;;;;;7.13;4.88;;;;;;;;;;5003144;28;25093;-72
2023/09/04 12:21:31;;;;;;;6.03;5.38;;;;;;;;;;5002540;28;25129;-76
2023/09/04 12:23:58;;;;;;;7.60;5.00;;;;;;;;;;5006340;28;25153;-74
2023/09/04 12:26:24;;;;;;;8.90;5.15;;;;;;;;;;5004316;28;25063;-74
2023/09/04 12:28:51;;;;;;;5.82;4.50;;;;;;;;;;5002934;28;25057;-76
2023/09/04 12:31:23;;;;;;;9.35;5.70;;;;;;;;;;4996426;28;25048;-74
2023/09/04 12:33:52;;;;;;;5.82;5.13;;;;;;;;;;4999646;28;25061;-76
2023/09/04 12:36:20;;;;;;;11.07;5.93;;;;;;;;;;4995717;28;25051;-74
2023/09/04 12:38:46;;;;;;;12.45;5.53;;;;;;;;;;4997435;28;25060;-74
2023/09/04 12:41:12;;;;;;;4.47;4.07;;;;;;;;;;5001642;28;25065;-72
2023/09/04 12:43:38;;;;;;;6.18;4.07;;;;;;;;;;5004150;28;25066;-72
2023/09/04 12:46:04;;;;;;;5.57;3.78;;;;;;;;;;4999921;28;25141;-78
2023/09/04 12:48:31;;;;;;;6.05;3.63;;;;;;;;;;4997370;28;25128;-74
2023/09/04 12:50:57;;;;;;;4.82;4.18;;;;;;;;;;5002743;28;25092;-75
2023/09/04 12:53:23;;;;;;;8.45;3.80;;;;;;;;;;5014300;28;25177;-74
2023/09/04 12:55:49;;;;;;;4.72;4.15;;;;;;;;;;4996814;28;25088;-75
2023/09/04 12:58:15;;;;;;;6.13;3.30;;;;;;;;;;5006281;28;25056;-75
2023/09/04 13:00:42;;;;;;;6.05;3.88;;;;;;;;;;5003305;28;25056;-79
2023/09/04 13:03:09;;;;;;;4.20;3.80;;;;;;;;;;5016450;28;25111;-74
2023/09/04 13:05:35;;;;;;;7.18;4.05;;;;;;;;;;4996100;28;25070;-73
2023/09/04 13:08:01;;;;;;;6.45;4.25;;;;;;;;;;4996347;28;25103;-74
2023/09/04 13:10:27;;;;;;;5.15;4.00;;;;;;;;;;4998171;28;25076;-76
2023/09/04 13:12:53;;;;;;;4.93;3.90;;;;;;;;;;5001443;28;25099;-74
2023/09/04 13:15:19;;;;;;;6.18;4.03;;;;;;;;;;5004290;28;25058;-76
2023/09/04 13:17:45;;;;;;;6.35;4.28;;;;;;;;;;5006512;28;25092;-75
2023/09/04 13:20:12;;;;;;;6.00;3.85;;;;;;;;;;5006005;28;25085;-74
2023/09/04 13:22:40;;;;;;;8.57;4.18;;;;;;;;;;5003499;28;25055;-75
2023/09/04 13:25:06;;;;;;;6.53;3.90;;;;;;;;;;5011521;28;25057;-77
2023/09/04 13:27:33;;;;;;;7.85;3.60;;;;;;;;;;5005689;28;25051;-75
2023/09/04 13:29:59;;;;;;;4.22;3.10;;;;;;;;;;5002103;28;25105;-74
2023/09/04 13:32:25;;;;;;;4.72;3.72;;;;;;;;;;5000108;28;25094;-75
2023/09/04 13:34:51;;;;;;;6.55;3.25;;;;;;;;;;5003084;28;25077;-75
2023/09/04 13:37:18;;;;;;;3.28;2.92;;;;;;;;;;5004420;28;25046;-76
2023/09/04 13:39:44;;;;;;;5.65;4.15;;;;;;;;;;4999716;28;25085;-76
2023/09/04 13:42:10;;;;;;;5.28;3.85;;;;;;;;;;5010570;28;25097;-74
2023/09/04 13:44:36;;;;;;;4.78;3.90;;;;;;;;;;5006660;28;25054;-71
2023/09/04 13:47:03;;;;;;;4.85;3.28;;;;;;;;;;5007001;28;25181;-75
2023/09/04 13:49:29;;;;;;;3.60;3.30;;;;;;;;;;5007154;28;25056;-74
2023/09/04 13:51:55;;;;;;;5.30;3.53;;;;;;;;;;5022001;28;25166;-76
2023/09/04 13:54:21;;;;;;;4.72;3.80;;;;;;;;;;5019654;28;25072;-77
2023/09/04 13:56:50;;;;;;;4.50;3.38;;;;;;;;;;5029621;28;25074;-75
2023/09/04 13:59:16;;;;;;;5.13;3.72;;;;;;;;;;5024908;28;25076;-74
2023/09/04 14:01:42;;;;;;;4.50;3.67;;;;;;;;;;5016498;28;25057;-76
2023/09/04 14:04:08;;;;;;;5.32;3.13;;;;;;;;;;5018269;28;25117;-76
2023/09/04 14:06:34;;;;;;;6.95;3.15;;;;;;;;;;5023791;28;25070;-74
2023/09/04 14:09:00;;;;;;;4.47;3.10;;;;;;;;;;5004361;28;25091;-76
2023/09/04 14:11:26;;;;;;;7.13;3.47;;;;;;;;;;5016204;28;25062;-74
2023/09/04 14:13:52;;;;;;;4.00;2.97;;;;;;;;;;5010988;28;25129;-77
2023/09/04 14:16:18;;;;;;;3.80;2.80;;;;;;;;;;5003906;28;25076;-81
2023/09/04 14:18:44;;;;;;;5.35;3.10;;;;;;;;;;5022978;28;25072;-79
2023/09/04 14:21:10;;;;;;;9.60;2.97;;;;;;;;;;5019999;28;25068;-76
2023/09/04 14:23:36;;;;;;;3.67;3.05;;;;;;;;;;4997441;28;25054;-75